createdAt,value
2022-10-14T00:03:30.622Z,65.31
2022-10-14T00:08:32.945Z,66.25
2022-10-14T00:13:35.817Z,65.80
2022-10-14T00:18:38.149Z,66.87
2022-10-14T00:23:40.474Z,66.84
2022-10-14T00:28:42.743Z,66.88
2022-10-14T00:33:46.039Z,66.45
2022-10-14T00:38:48.763Z,66.98
2022-10-14T00:43:57.406Z,66.66
2022-10-14T00:49:03.886Z,66.37
2022-10-14T00:54:06.790Z,66.36
2022-10-14T00:59:09.357Z,66.34
2022-10-14T01:04:11.973Z,66.16
2022-10-14T01:09:30.993Z,66.80
2022-10-14T01:15:00.686Z,66.44
2022-10-14T01:20:19.276Z,66.99
2022-10-14T01:25:34.403Z,66.96
2022-10-14T01:30:44.807Z,66.55
2022-10-14T01:36:18.922Z,66.00
2022-10-14T01:41:29.467Z,65.41
2022-10-14T01:46:33.296Z,65.85
2022-10-14T01:51:57.502Z,65.93
2022-10-14T01:57:03.313Z,66.45
2022-10-14T02:02:05.608Z,67.02
2022-10-14T02:07:07.811Z,67.03
2022-10-14T02:12:19.271Z,66.70
2022-10-14T02:17:52.230Z,66.23
2022-10-14T02:23:01.001Z,67.22
2022-10-14T02:28:08.326Z,67.54
2022-10-14T02:33:10.883Z,67.62
2022-10-14T02:38:13.152Z,67.59
2022-10-14T02:43:15.416Z,67.38
2022-10-14T02:48:17.588Z,66.89
2022-10-14T02:53:19.978Z,67.07
2022-10-14T02:58:22.171Z,67.04
2022-10-14T03:03:24.512Z,66.47
2022-10-14T03:08:26.849Z,66.40
2022-10-14T03:13:29.097Z,66.32
2022-10-14T03:18:31.956Z,67.14
2022-10-14T03:23:34.252Z,67.73
2022-10-14T03:28:36.493Z,67.34
2022-10-14T03:33:38.910Z,67.70
2022-10-14T03:38:41.213Z,68.11
2022-10-14T03:43:43.376Z,67.88
2022-10-14T03:48:45.744Z,68.44
2022-10-14T03:53:47.889Z,68.59
2022-10-14T03:58:50.911Z,69.62
2022-10-14T04:03:53.299Z,70.35
2022-10-14T04:08:55.478Z,69.99
2022-10-14T04:14:01.818Z,70.77
2022-10-14T04:19:04.529Z,70.04
2022-10-14T04:24:08.563Z,70.30
2022-10-14T04:29:11.116Z,71.49
2022-10-14T04:34:13.532Z,72.02
2022-10-14T04:39:15.761Z,72.50
2022-10-14T04:44:18.256Z,73.04
2022-10-14T04:49:20.422Z,72.50
2022-10-14T04:54:22.758Z,72.04
2022-10-14T04:59:25.106Z,72.18
2022-10-14T05:04:27.749Z,72.05
2022-10-14T05:09:30.167Z,72.20
2022-10-14T05:14:32.516Z,71.96
2022-10-14T05:19:34.849Z,71.82
2022-10-14T05:24:37.717Z,71.73
2022-10-14T05:29:40.021Z,72.30
2022-10-14T05:34:42.696Z,72.21
2022-10-14T05:39:45.050Z,72.73
2022-10-14T05:44:47.481Z,72.07
2022-10-14T05:49:49.810Z,72.58
2022-10-14T05:54:52.006Z,72.67
2022-10-14T05:59:54.261Z,72.65
2022-10-14T06:04:56.444Z,72.33
2022-10-14T06:09:58.683Z,72.37
2022-10-14T06:15:00.878Z,73.18
2022-10-14T06:20:03.702Z,73.63
2022-10-14T06:25:06.521Z,73.50
2022-10-14T06:30:09.429Z,73.15
2022-10-14T06:35:11.843Z,72.76
2022-10-14T06:40:14.042Z,72.98
2022-10-14T06:45:16.463Z,72.95
2022-10-14T06:50:18.794Z,73.11
2022-10-14T06:55:21.299Z,72.81
2022-10-14T07:00:23.650Z,73.52
2022-10-14T07:05:27.185Z,73.08
2022-10-14T07:10:29.387Z,73.03
2022-10-14T07:15:35.320Z,73.21
2022-10-14T07:26:04.418Z,73.19
2022-10-14T07:31:09.887Z,73.38
2022-10-14T07:36:18.406Z,72.97
2022-10-14T07:41:25.643Z,72.89
2022-10-14T07:46:32.609Z,72.45
2022-10-14T07:51:36.393Z,73.07
2022-10-14T07:56:40.221Z,73.41
2022-10-14T08:01:43.525Z,74.01
2022-10-14T08:06:49.096Z,73.10
2022-10-14T08:11:51.559Z,72.67
2022-10-14T08:16:53.906Z,72.50
2022-10-14T08:21:56.457Z,72.69
2022-10-14T08:27:01.334Z,73.14
2022-10-14T08:32:03.933Z,72.67
2022-10-14T08:37:06.266Z,72.77
2022-10-14T08:42:44.555Z,73.59
2022-10-14T08:47:49.002Z,73.61
2022-10-14T08:52:55.760Z,73.88
2022-10-14T08:58:21.197Z,73.85
2022-10-14T09:03:33.304Z,73.89
2022-10-14T09:08:42.960Z,74.78
2022-10-14T09:13:49.976Z,74.70
2022-10-14T09:18:58.423Z,74.33
2022-10-14T09:24:10.223Z,74.90
2022-10-14T09:29:33.918Z,74.83
2022-10-14T09:34:47.918Z,75.58
2022-10-14T09:39:51.768Z,75.57
2022-10-14T09:45:08.538Z,74.77
2022-10-14T09:50:19.860Z,74.76
2022-10-14T09:55:24.862Z,74.93
2022-10-14T10:00:29.833Z,75.36
2022-10-14T10:05:34.937Z,74.76
2022-10-14T10:10:37.544Z,75.43
2022-10-14T10:15:39.769Z,75.31
2022-10-14T10:20:41.959Z,75.83
2022-10-14T10:25:44.830Z,75.46
2022-10-14T10:31:05.854Z,74.81
2022-10-14T10:36:29.607Z,74.69
2022-10-14T10:41:40.614Z,74.59
2022-10-14T10:46:45.524Z,74.66
2022-10-14T10:51:56.438Z,75.33
2022-10-14T10:57:13.497Z,75.79
2022-10-14T11:02:26.736Z,75.43
2022-10-14T11:08:19.368Z,75.51
2022-10-14T11:13:51.692Z,75.95
2022-10-14T11:19:15.093Z,75.74
2022-10-14T11:24:36.217Z,75.15
2022-10-14T11:30:01.721Z,75.30
2022-10-14T11:35:10.291Z,74.90
2022-10-14T11:40:37.378Z,74.87
2022-10-14T11:45:59.213Z,74.56
2022-10-14T11:51:37.504Z,74.74
2022-10-14T11:57:10.123Z,74.61
2022-10-14T12:02:41.391Z,74.63
2022-10-14T12:07:57.225Z,74.45
2022-10-14T12:13:01.359Z,74.64
2022-10-14T12:18:06.274Z,74.96
2022-10-14T12:23:15.556Z,74.21
2022-10-14T12:28:21.121Z,74.27
2022-10-14T12:33:23.404Z,74.43
2022-10-14T12:38:27.702Z,74.77
2022-10-14T12:43:30.382Z,74.72
2022-10-14T12:48:35.528Z,74.86
2022-10-14T12:53:42.268Z,73.90
2022-10-14T12:59:01.892Z,74.33
2022-10-14T13:04:08.831Z,74.02
2022-10-14T13:09:14.185Z,73.35
2022-10-14T13:14:32.413Z,73.48
2022-10-14T13:19:34.585Z,73.83
2022-10-14T13:24:42.100Z,73.72
2022-10-14T13:30:06.221Z,73.68
2022-10-14T13:35:23.916Z,73.77
2022-10-14T13:40:39.266Z,73.66
2022-10-14T13:45:59.746Z,73.39
2022-10-14T13:51:31.431Z,73.78
2022-10-14T13:56:37.687Z,74.64
2022-10-14T14:01:40.388Z,74.26
2022-10-14T14:07:02.986Z,74.08
2022-10-14T14:12:13.875Z,73.36
2022-10-14T14:17:22.750Z,73.60
2022-10-14T14:22:30.875Z,73.42
2022-10-14T14:27:34.779Z,73.15
2022-10-14T14:32:37.068Z,73.58
2022-10-14T14:37:55.818Z,73.72
2022-10-14T14:43:03.419Z,73.28
2022-10-14T14:48:08.248Z,73.49
2022-10-14T14:53:39.906Z,73.08
2022-10-14T14:59:09.655Z,73.31
2022-10-14T15:04:21.484Z,73.54
2022-10-14T15:09:33.832Z,73.31
2022-10-14T15:14:50.340Z,73.36
2022-10-14T15:19:52.577Z,72.94
2022-10-14T15:25:01.674Z,72.47
2022-10-14T15:30:40.074Z,72.16
2022-10-14T15:35:44.291Z,71.65
2022-10-14T15:40:48.531Z,71.95
2022-10-14T15:46:11.201Z,71.97
2022-10-14T15:51:18.516Z,71.84
2022-10-14T15:56:23.864Z,71.83
2022-10-14T16:01:26.749Z,71.57
2022-10-14T16:06:33.205Z,71.32
2022-10-14T16:11:35.514Z,70.85
2022-10-14T16:16:42.739Z,71.19
2022-10-14T16:21:45.667Z,70.80
2022-10-14T16:26:51.886Z,70.37
2022-10-14T16:31:54.865Z,69.83
2022-10-14T16:36:57.146Z,69.14
2022-10-14T16:41:59.877Z,69.08
2022-10-14T16:47:17.543Z,68.84
2022-10-14T16:52:20.156Z,68.97
2022-10-14T16:57:22.620Z,69.01
2022-10-14T17:02:32.176Z,68.51
2022-10-14T17:07:34.596Z,68.09
2022-10-14T17:12:37.452Z,68.18
2022-10-14T17:17:40.898Z,67.67
2022-10-14T17:22:43.364Z,67.13
2022-10-14T17:27:45.918Z,65.66
2022-10-14T17:32:48.642Z,65.01
2022-10-14T17:37:52.317Z,64.45
2022-10-14T17:42:54.837Z,63.88
2022-10-14T17:47:57.640Z,63.59
2022-10-14T17:53:00.136Z,63.18
2022-10-14T17:58:02.671Z,63.12
2022-10-14T18:03:05.881Z,62.74
2022-10-14T18:08:10.867Z,62.98
2022-10-14T18:13:13.124Z,62.64
2022-10-14T18:18:15.316Z,62.63
2022-10-14T18:23:17.890Z,62.60
2022-10-14T18:28:21.550Z,63.09
2022-10-14T18:33:24.104Z,63.02
2022-10-14T18:38:26.318Z,63.69
2022-10-14T18:43:28.972Z,63.61
2022-10-14T18:48:31.525Z,63.60
2022-10-14T18:53:34.290Z,63.87
2022-10-14T18:58:37.812Z,63.94
2022-10-14T19:03:43.198Z,63.25
2022-10-14T19:08:46.648Z,63.19
2022-10-14T19:13:55.567Z,62.80
2022-10-14T19:19:00.250Z,62.08
2022-10-14T19:24:03.828Z,61.50
2022-10-14T19:29:10.505Z,61.45
2022-10-14T19:34:16.620Z,61.22
2022-10-14T19:39:20.396Z,61.51
2022-10-14T19:44:22.843Z,61.69
2022-10-14T19:49:25.205Z,61.80
2022-10-14T19:54:27.466Z,62.64
2022-10-14T19:59:29.912Z,62.62
2022-10-14T20:04:32.325Z,63.11
2022-10-14T20:09:34.743Z,64.17
2022-10-14T20:14:36.972Z,64.61
2022-10-14T20:19:39.336Z,65.07
2022-10-14T20:24:41.743Z,65.36
2022-10-14T20:29:44.336Z,65.62
2022-10-14T20:34:47.092Z,65.21
2022-10-14T20:39:49.903Z,65.05
2022-10-14T20:44:52.380Z,64.77
2022-10-14T20:49:54.635Z,64.42
2022-10-14T20:54:57.512Z,64.51
2022-10-14T20:59:59.752Z,64.65
2022-10-14T21:05:02.021Z,64.21
2022-10-14T21:10:05.194Z,64.55
2022-10-14T21:15:09.084Z,64.16
2022-10-14T21:20:11.388Z,64.17
2022-10-14T21:25:13.905Z,64.27
2022-10-14T21:30:16.306Z,64.76
2022-10-14T21:35:18.536Z,64.43
2022-10-14T21:40:20.935Z,64.60
2022-10-14T21:45:23.469Z,64.22
2022-10-14T21:50:25.945Z,64.33
2022-10-14T21:55:28.127Z,64.03
2022-10-14T22:00:30.638Z,63.99
2022-10-14T22:05:35.038Z,63.56
2022-10-14T22:10:41.319Z,63.45
2022-10-14T22:15:44.116Z,63.90
2022-10-14T22:20:46.506Z,63.47
2022-10-14T22:25:49.023Z,63.54
2022-10-14T22:30:51.541Z,63.71
2022-10-14T22:35:53.754Z,63.44
2022-10-14T22:40:56.002Z,63.60
2022-10-14T22:46:12.607Z,63.84
2022-10-14T22:51:17.588Z,63.71
2022-10-14T22:56:24.909Z,63.79
2022-10-14T23:01:30.729Z,63.63
2022-10-14T23:06:33.661Z,63.40
2022-10-14T23:11:36.169Z,63.16
2022-10-14T23:16:39.634Z,63.36
2022-10-14T23:21:42.118Z,63.55
2022-10-14T23:26:44.372Z,64.00
2022-10-14T23:31:46.600Z,64.61
2022-10-14T23:36:48.965Z,64.46
2022-10-14T23:41:51.328Z,64.23
2022-10-14T23:46:53.709Z,64.22
2022-10-14T23:51:56.308Z,64.15
2022-10-14T23:56:58.710Z,64.28
